Time;durP1;ratioP1;P1;durP2;ratioP2;P2;SDS_P1;SDS_P2;PMS_P1;PMS_P2;Temp;Humidity;BMP_temperature;BMP_pressure;BME280_temperature;BME280_humidity;BME280_pressure;Samples;Min_cycle;Max_cycle;Signal;HPM_P1;HPM_P2
2021/09/17 00:01:59;;;;;;;23.53;22.07;;;14.30;90.80;;;;;;5051161;28;20481;-68
2021/09/17 00:04:26;;;;;;;24.17;22.50;;;14.30;90.90;;;;;;5050818;28;20459;-68
2021/09/17 00:06:53;;;;;;;24.07;22.30;;;14.40;90.80;;;;;;5062133;28;20450;-68
2021/09/17 00:09:20;;;;;;;24.77;22.80;;;14.40;90.60;;;;;;5052779;28;20486;-68
2021/09/17 00:11:48;;;;;;;24.67;23.27;;;14.30;91.00;;;;;;5049695;28;20461;-68
2021/09/17 00:14:15;;;;;;;25.50;23.70;;;14.30;90.90;;;;;;5048546;28;20464;-68
2021/09/17 00:16:42;;;;;;;24.20;22.60;;;14.30;90.90;;;;;;5053964;28;20476;-69
2021/09/17 00:19:09;;;;;;;24.20;22.60;;;14.30;91.00;;;;;;5059978;28;20487;-68
2021/09/17 00:21:36;;;;;;;24.10;22.70;;;14.30;91.20;;;;;;5055410;28;20541;-68
2021/09/17 00:24:03;;;;;;;23.40;22.13;;;14.30;91.30;;;;;;5057892;28;21202;-68
2021/09/17 00:26:30;;;;;;;24.30;22.50;;;14.30;91.30;;;;;;5050353;28;20463;-68
2021/09/17 00:28:58;;;;;;;23.80;22.33;;;14.40;91.00;;;;;;5054664;28;20479;-68
2021/09/17 00:31:25;;;;;;;23.87;22.50;;;14.40;91.00;;;;;;5060777;28;20466;-68
2021/09/17 00:33:52;;;;;;;22.60;21.30;;;14.40;91.00;;;;;;5050859;28;20888;-68
2021/09/17 00:36:19;;;;;;;24.13;22.63;;;14.40;91.30;;;;;;5055304;28;20460;-68
2021/09/17 00:38:45;;;;;;;23.63;22.23;;;14.40;91.10;;;;;;5050793;28;20463;-68
2021/09/17 00:41:13;;;;;;;24.00;22.60;;;14.40;90.90;;;;;;5067404;28;20460;-68
2021/09/17 00:43:40;;;;;;;24.07;22.67;;;14.40;91.10;;;;;;5058024;28;20460;-68
2021/09/17 00:46:09;;;;;;;24.47;23.07;;;14.40;91.30;;;;;;5053245;28;20466;-68
2021/09/17 00:48:35;;;;;;;23.80;22.40;;;14.40;91.30;;;;;;5049251;28;20471;-69
2021/09/17 00:51:03;;;;;;;24.07;22.57;;;14.40;91.20;;;;;;5058253;28;20473;-68
2021/09/17 00:53:33;;;;;;;22.80;21.50;;;14.40;91.20;;;;;;5048867;28;20816;-68
2021/09/17 00:56:00;;;;;;;23.70;22.40;;;14.40;91.30;;;;;;5056011;28;20545;-68
2021/09/17 00:58:27;;;;;;;22.67;21.47;;;14.50;91.00;;;;;;5048375;28;20466;-68
2021/09/17 01:00:54;;;;;;;22.70;21.30;;;14.50;90.90;;;;;;5056838;28;20491;-68
2021/09/17 01:03:22;;;;;;;23.50;22.03;;;14.50;91.20;;;;;;5049272;28;20897;-68
2021/09/17 01:05:49;;;;;;;24.30;22.70;;;14.50;91.00;;;;;;5048666;28;20825;-68
2021/09/17 01:08:16;;;;;;;23.03;21.60;;;14.50;90.70;;;;;;5061266;28;20453;-68
2021/09/17 01:10:43;;;;;;;23.40;21.90;;;14.50;90.80;;;;;;5059541;28;20496;-68
2021/09/17 01:13:10;;;;;;;22.00;20.80;;;14.60;90.90;;;;;;5052582;28;20537;-68
2021/09/17 01:15:37;;;;;;;23.10;21.80;;;14.60;90.80;;;;;;5053643;28;20539;-68
2021/09/17 01:18:04;;;;;;;22.30;21.00;;;14.60;90.60;;;;;;5050100;28;20458;-68
2021/09/17 01:20:33;;;;;;;23.53;22.07;;;14.60;90.40;;;;;;5055047;28;20466;-68
2021/09/17 01:23:01;;;;;;;22.63;21.33;;;14.60;90.60;;;;;;5050449;28;20469;-69
2021/09/17 01:25:28;;;;;;;22.80;21.60;;;14.60;90.80;;;;;;5056111;28;20464;-68
2021/09/17 01:27:55;;;;;;;23.27;21.90;;;14.60;90.30;;;;;;5048826;28;20571;-68
2021/09/17 01:30:23;;;;;;;24.30;22.67;;;14.60;90.50;;;;;;5060974;28;20975;-68
2021/09/17 01:32:51;;;;;;;23.73;22.23;;;14.60;90.60;;;;;;5053991;28;20457;-68
2021/09/17 01:35:21;;;;;;;23.77;22.37;;;14.60;90.50;;;;;;5061001;28;20463;-68
2021/09/17 01:37:49;;;;;;;23.63;22.33;;;14.70;90.50;;;;;;5057702;28;20468;-70
2021/09/17 01:40:18;;;;;;;23.97;22.67;;;14.70;90.40;;;;;;5056776;28;20477;-68
2021/09/17 01:42:46;;;;;;;24.07;22.57;;;14.70;90.40;;;;;;5060329;28;21000;-68
2021/09/17 01:45:14;;;;;;;23.87;22.57;;;14.70;90.40;;;;;;5061862;28;20458;-68
2021/09/17 01:47:40;;;;;;;23.33;21.93;;;14.80;89.50;;;;;;5061506;28;21262;-68
2021/09/17 01:50:09;;;;;;;23.70;22.30;;;14.70;89.90;;;;;;5050238;28;20483;-68
2021/09/17 01:52:36;;;;;;;23.50;22.20;;;14.70;90.30;;;;;;5053032;28;20464;-68
2021/09/17 01:55:03;;;;;;;23.00;21.60;;;14.70;90.40;;;;;;5053035;28;20470;-68
2021/09/17 01:57:31;;;;;;;22.90;21.60;;;14.70;90.60;;;;;;5054335;28;20457;-68
2021/09/17 01:59:58;;;;;;;22.57;21.27;;;14.70;90.50;;;;;;5061499;28;20481;-68
2021/09/17 02:02:25;;;;;;;23.43;21.93;;;14.70;90.50;;;;;;5057204;28;20451;-68
2021/09/17 02:04:52;;;;;;;23.50;22.03;;;14.80;90.10;;;;;;5054245;28;20929;-67
2021/09/17 02:07:19;;;;;;;23.20;21.90;;;14.80;90.10;;;;;;5064615;28;20459;-68
2021/09/17 02:09:46;;;;;;;23.77;22.37;;;14.70;90.10;;;;;;5054286;28;20483;-68
2021/09/17 02:12:13;;;;;;;24.00;22.60;;;14.80;90.30;;;;;;5066613;28;20548;-68
2021/09/17 02:14:41;;;;;;;23.60;22.30;;;14.70;90.40;;;;;;5059617;28;20464;-68
2021/09/17 02:17:08;;;;;;;23.27;21.87;;;14.80;90.60;;;;;;5055221;28;20454;-69
2021/09/17 02:19:35;;;;;;;24.70;23.20;;;14.80;90.70;;;;;;5055936;28;20487;-69
2021/09/17 02:22:03;;;;;;;24.47;22.17;;;14.80;90.50;;;;;;5064531;28;20552;-69
2021/09/17 02:24:30;;;;;;;24.50;23.00;;;14.80;90.30;;;;;;5055902;28;20578;-69
2021/09/17 02:26:56;;;;;;;23.63;22.23;;;14.80;90.30;;;;;;5066623;28;20462;-69
2021/09/17 02:29:23;;;;;;;24.00;22.63;;;14.80;90.30;;;;;;5065249;28;20835;-69
2021/09/17 02:31:52;;;;;;;22.90;21.60;;;14.80;90.20;;;;;;5056987;28;20467;-69
2021/09/17 02:34:18;;;;;;;23.70;22.40;;;14.80;90.50;;;;;;5055842;28;20485;-69
2021/09/17 02:36:45;;;;;;;24.67;23.10;;;14.90;90.20;;;;;;5061915;28;20459;-69
2021/09/17 02:39:15;;;;;;;24.17;22.80;;;14.90;90.00;;;;;;5054382;28;20519;-69
2021/09/17 02:41:42;;;;;;;23.93;22.53;;;14.80;89.90;;;;;;5060989;28;20852;-69
2021/09/17 02:44:09;;;;;;;23.30;22.10;;;14.90;89.80;;;;;;5054079;28;20546;-69
2021/09/17 02:46:36;;;;;;;24.40;22.90;;;14.90;89.80;;;;;;5056511;28;20950;-69
2021/09/17 02:49:04;;;;;;;22.80;21.50;;;15.00;89.70;;;;;;5058130;28;20569;-69
2021/09/17 02:51:32;;;;;;;24.07;22.67;;;15.00;89.80;;;;;;5063543;28;20581;-69
2021/09/17 02:54:00;;;;;;;24.00;22.70;;;15.00;90.00;;;;;;5057270;28;20452;-69
2021/09/17 02:56:27;;;;;;;28.00;25.93;;;15.00;90.20;;;;;;5059791;28;20497;-69
2021/09/17 02:58:54;;;;;;;22.93;21.43;;;14.90;89.80;;;;;;5052266;28;20491;-69
2021/09/17 03:01:21;;;;;;;23.97;22.63;;;15.00;89.50;;;;;;5055865;28;20462;-69
2021/09/17 03:03:47;;;;;;;23.17;21.87;;;15.00;89.70;;;;;;5055685;28;20572;-69
2021/09/17 03:06:16;;;;;;;24.17;22.87;;;15.00;89.60;;;;;;5060742;28;20460;-68
2021/09/17 03:08:43;;;;;;;23.90;22.40;;;15.00;89.60;;;;;;5058097;28;20463;-68
2021/09/17 03:11:09;;;;;;;23.70;22.30;;;15.00;89.70;;;;;;5059058;28;20475;-68
2021/09/17 03:13:36;;;;;;;23.87;22.47;;;15.00;89.80;;;;;;5051129;28;20479;-68
2021/09/17 03:16:05;;;;;;;24.37;23.00;;;15.10;89.80;;;;;;5062616;28;20476;-68
2021/09/17 03:18:32;;;;;;;24.73;23.33;;;15.10;89.80;;;;;;5059768;28;20505;-68
2021/09/17 03:20:59;;;;;;;23.70;22.20;;;15.10;89.90;;;;;;5058948;28;20459;-68
2021/09/17 03:23:27;;;;;;;23.93;22.63;;;15.10;89.90;;;;;;5059552;28;20456;-68
2021/09/17 03:25:54;;;;;;;23.83;22.33;;;15.10;89.40;;;;;;5049549;28;20984;-68
2021/09/17 03:28:21;;;;;;;24.37;22.97;;;15.10;89.30;;;;;;5049689;28;20469;-68
2021/09/17 03:30:48;;;;;;;24.50;23.00;;;15.00;89.60;;;;;;5064527;28;20487;-68
2021/09/17 03:33:15;;;;;;;25.93;24.17;;;15.00;90.00;;;;;;5056313;28;20498;-68
2021/09/17 03:35:42;;;;;;;23.53;22.03;;;15.00;90.20;;;;;;5055533;28;20962;-67
2021/09/17 03:38:09;;;;;;;28.47;26.97;;;15.00;90.30;;;;;;5050122;28;20555;-68
2021/09/17 03:40:39;;;;;;;23.90;22.60;;;15.10;90.30;;;;;;5055962;28;20474;-68
2021/09/17 03:43:07;;;;;;;25.97;24.23;;;15.00;90.20;;;;;;5049724;28;20456;-68
2021/09/17 03:45:36;;;;;;;26.30;24.50;;;15.00;90.20;;;;;;5052335;28;20557;-68
2021/09/17 03:48:05;;;;;;;24.17;22.70;;;15.00;90.30;;;;;;5057746;28;20961;-68
2021/09/17 03:50:32;;;;;;;25.93;24.47;;;15.00;90.40;;;;;;5061317;28;20481;-68
2021/09/17 03:52:59;;;;;;;25.57;23.97;;;15.00;90.50;;;;;;5052989;28;20578;-67
2021/09/17 03:55:26;;;;;;;23.80;22.40;;;15.00;90.60;;;;;;5061508;28;20503;-68
2021/09/17 03:57:54;;;;;;;23.87;22.57;;;15.00;90.70;;;;;;5060504;28;20455;-67
2021/09/17 04:00:22;;;;;;;28.83;27.30;;;15.00;90.50;;;;;;5060358;28;20537;-67
2021/09/17 04:02:49;;;;;;;23.97;22.63;;;15.00;90.80;;;;;;5057250;28;20454;-68
2021/09/17 04:05:15;;;;;;;24.20;22.80;;;15.00;90.90;;;;;;5049918;28;20828;-68
2021/09/17 04:07:43;;;;;;;24.80;23.20;;;15.00;90.80;;;;;;5058874;28;20453;-68
2021/09/17 04:10:13;;;;;;;24.07;22.77;;;15.10;90.20;;;;;;5054112;28;20573;-67
2021/09/17 04:12:39;;;;;;;24.17;22.77;;;15.10;90.20;;;;;;5051378;28;20649;-68
2021/09/17 04:15:09;;;;;;;27.07;25.50;;;15.10;90.20;;;;;;5059277;28;20458;-67
2021/09/17 04:17:36;;;;;;;26.90;25.30;;;15.10;90.50;;;;;;5063624;28;20463;-68
2021/09/17 04:20:03;;;;;;;25.47;23.87;;;15.00;90.40;;;;;;5053977;28;20569;-69
2021/09/17 04:22:30;;;;;;;24.40;23.10;;;15.00;90.40;;;;;;5064850;28;20454;-69
2021/09/17 04:24:57;;;;;;;26.03;24.63;;;15.00;90.40;;;;;;5052664;28;20543;-69
2021/09/17 04:27:25;;;;;;;24.63;23.23;;;14.90;90.80;;;;;;5060716;28;20452;-69
2021/09/17 04:29:53;;;;;;;24.73;23.10;;;15.00;90.90;;;;;;5048950;28;20476;-69
2021/09/17 04:32:21;;;;;;;26.60;25.10;;;15.00;90.90;;;;;;5053925;28;20487;-69
2021/09/17 04:34:48;;;;;;;24.97;23.50;;;15.00;91.00;;;;;;5058418;28;20466;-72
2021/09/17 04:37:17;;;;;;;24.80;23.30;;;15.00;91.00;;;;;;5060202;28;20461;-69
2021/09/17 04:39:44;;;;;;;24.23;22.93;;;15.00;91.10;;;;;;5056484;28;20494;-69
2021/09/17 04:42:11;;;;;;;24.20;22.70;;;15.00;91.00;;;;;;5062337;28;20521;-69
2021/09/17 04:44:38;;;;;;;24.50;23.03;;;15.00;91.00;;;;;;5053744;28;20459;-68
2021/09/17 04:47:05;;;;;;;26.13;24.53;;;15.00;91.00;;;;;;5056833;28;20462;-69
2021/09/17 04:49:33;;;;;;;25.40;23.87;;;15.00;90.90;;;;;;5056744;28;20463;-69
2021/09/17 04:52:00;;;;;;;25.90;24.30;;;15.20;90.70;;;;;;5052372;28;20470;-69
2021/09/17 04:54:27;;;;;;;25.07;23.67;;;15.10;90.20;;;;;;5055558;28;21003;-69
2021/09/17 04:56:54;;;;;;;26.17;24.53;;;15.00;90.30;;;;;;5058317;28;20886;-69
2021/09/17 04:59:21;;;;;;;26.20;24.53;;;15.00;90.40;;;;;;5057901;28;20487;-69
2021/09/17 05:01:48;;;;;;;25.20;23.70;;;15.00;90.50;;;;;;5053454;28;20458;-71
2021/09/17 05:04:15;;;;;;;25.50;24.10;;;14.90;90.60;;;;;;5050703;28;20459;-72
2021/09/17 05:06:43;;;;;;;27.63;25.77;;;14.90;90.70;;;;;;5055983;28;20455;-69
2021/09/17 05:09:10;;;;;;;25.07;23.60;;;14.80;90.90;;;;;;5058187;28;20473;-71
2021/09/17 05:11:37;;;;;;;25.50;24.00;;;14.80;91.10;;;;;;5063980;28;20500;-69
2021/09/17 05:14:04;;;;;;;25.93;24.30;;;14.80;91.50;;;;;;5059186;28;21047;-69
2021/09/17 05:16:32;;;;;;;26.93;25.33;;;14.80;91.40;;;;;;5061449;28;20465;-69
2021/09/17 05:18:59;;;;;;;25.23;23.80;;;14.70;91.80;;;;;;5066516;28;20474;-69
2021/09/17 05:21:27;;;;;;;25.33;23.93;;;14.70;92.00;;;;;;5049636;28;20943;-70
2021/09/17 05:23:55;;;;;;;26.70;25.10;;;14.60;92.20;;;;;;5055325;28;20461;-69
2021/09/17 05:26:22;;;;;;;28.43;26.90;;;14.60;92.50;;;;;;5061479;28;20462;-68
2021/09/17 05:28:49;;;;;;;24.80;23.40;;;14.50;92.50;;;;;;5050844;28;20453;-70
2021/09/17 05:31:16;;;;;;;26.40;24.97;;;14.50;92.50;;;;;;5053875;28;20479;-71
2021/09/17 05:33:43;;;;;;;24.70;23.20;;;14.50;92.50;;;;;;5059060;28;20547;-68
2021/09/17 05:36:10;;;;;;;25.77;24.20;;;14.50;92.60;;;;;;5063331;28;20545;-69
2021/09/17 05:38:37;;;;;;;24.87;23.37;;;14.50;92.50;;;;;;5050077;28;20467;-71
2021/09/17 05:41:05;;;;;;;24.23;22.50;;;14.50;92.40;;;;;;5056872;28;20551;-72
2021/09/17 05:43:32;;;;;;;24.17;22.80;;;14.50;92.50;;;;;;5053733;28;20604;-72
2021/09/17 05:45:59;;;;;;;24.03;22.63;;;14.50;92.50;;;;;;5049572;28;20818;-72
2021/09/17 05:48:26;;;;;;;25.37;23.70;;;14.60;92.30;;;;;;5050736;28;20887;-72
2021/09/17 05:50:53;;;;;;;26.70;24.37;;;14.60;91.90;;;;;;5055663;28;21002;-72
2021/09/17 05:53:20;;;;;;;25.30;23.70;;;14.70;91.60;;;;;;5051364;28;20457;-70
2021/09/17 05:55:48;;;;;;;25.43;23.93;;;14.70;91.30;;;;;;5058313;28;20493;-71
2021/09/17 05:58:16;;;;;;;25.60;23.67;;;14.80;91.10;;;;;;5052734;28;20535;-69
2021/09/17 06:00:43;;;;;;;25.17;23.87;;;14.80;91.20;;;;;;5053158;28;20498;-69
2021/09/17 06:03:10;;;;;;;26.60;25.03;;;14.80;91.30;;;;;;5054224;28;20458;-69
2021/09/17 06:05:37;;;;;;;25.17;23.67;;;14.90;91.20;;;;;;5062033;28;20475;-69
2021/09/17 06:08:05;;;;;;;24.77;23.17;;;14.90;90.80;;;;;;5059936;28;21771;-70
2021/09/17 06:10:32;;;;;;;25.67;24.17;;;15.00;90.80;;;;;;5047882;28;20487;-68
2021/09/17 06:12:59;;;;;;;25.00;23.50;;;15.00;90.80;;;;;;5048326;28;20462;-68
2021/09/17 06:15:27;;;;;;;26.33;24.47;;;15.00;90.80;;;;;;5052013;28;20450;-70
2021/09/17 06:17:54;;;;;;;26.63;24.77;;;15.20;90.20;;;;;;5052319;28;20457;-68
2021/09/17 06:20:21;;;;;;;26.30;24.70;;;15.30;90.00;;;;;;5053104;28;20481;-68
2021/09/17 06:22:53;;;;;;;25.93;24.27;;;15.30;89.60;;;;;;5054568;28;20483;-69
2021/09/17 06:25:20;;;;;;;25.80;24.30;;;15.40;89.40;;;;;;5060091;28;20943;-69
2021/09/17 06:27:47;;;;;;;25.83;24.30;;;15.40;89.30;;;;;;5061070;28;20990;-69
2021/09/17 06:30:16;;;;;;;24.40;22.90;;;15.50;89.20;;;;;;5062874;28;20475;-69
2021/09/17 06:32:44;;;;;;;25.37;23.87;;;15.50;89.20;;;;;;5058381;28;20484;-69
2021/09/17 06:35:12;;;;;;;26.30;24.80;;;15.60;88.90;;;;;;5061529;28;20459;-69
2021/09/17 06:37:45;;;;;;;24.53;23.13;;;15.70;88.80;;;;;;5055551;28;20461;-70
2021/09/17 06:40:13;;;;;;;25.47;24.07;;;15.80;88.50;;;;;;5057588;28;20899;-70
2021/09/17 06:42:40;;;;;;;25.80;24.10;;;15.90;88.30;;;;;;5069237;28;20485;-70
2021/09/17 06:45:08;;;;;;;26.70;24.93;;;15.90;88.50;;;;;;5051348;28;20464;-69
2021/09/17 06:47:59;;;;;;;27.60;26.00;;;16.00;88.20;;;;;;5052618;28;20474;-71
2021/09/17 06:50:28;;;;;;;26.58;25.00;;;16.10;87.80;;;;;;5051814;28;20527;-68
2021/09/17 06:52:57;;;;;;;26.23;24.63;;;16.40;87.30;;;;;;5050312;28;20212;-68
2021/09/17 06:55:25;;;;;;;26.67;25.07;;;16.50;86.40;;;;;;5051768;28;20466;-68
2021/09/17 06:57:54;;;;;;;27.80;26.17;;;16.50;86.20;;;;;;5057399;28;20456;-69
2021/09/17 07:00:22;;;;;;;28.43;26.53;;;16.60;85.70;;;;;;5052366;28;20493;-69
2021/09/17 07:02:49;;;;;;;28.00;26.00;;;16.60;85.70;;;;;;5055275;28;20529;-68
2021/09/17 07:05:20;;;;;;;28.97;27.07;;;16.70;85.60;;;;;;5054222;28;20481;-68
2021/09/17 07:07:48;;;;;;;28.80;27.00;;;16.80;85.50;;;;;;5055327;28;20466;-68
2021/09/17 07:10:17;;;;;;;28.57;26.40;;;16.90;85.50;;;;;;5060602;28;20991;-69
2021/09/17 07:12:44;;;;;;;27.97;26.10;;;17.00;84.70;;;;;;5059114;28;20485;-69
2021/09/17 07:15:12;;;;;;;28.80;27.20;;;17.00;83.80;;;;;;5054038;28;20463;-69
2021/09/17 07:17:39;;;;;;;28.80;26.80;;;17.00;83.10;;;;;;5051917;28;20506;-69
2021/09/17 07:20:07;;;;;;;27.63;26.13;;;17.10;83.10;;;;;;5057857;28;20490;-69
2021/09/17 07:22:36;;;;;;;28.77;26.97;;;17.10;83.90;;;;;;5057124;28;20470;-69
2021/09/17 07:25:03;;;;;;;29.53;27.77;;;17.10;84.40;;;;;;5054683;28;20802;-69
2021/09/17 07:27:31;;;;;;;29.60;27.70;;;17.30;84.00;;;;;;5055987;28;20554;-69
2021/09/17 07:29:58;;;;;;;29.60;27.80;;;17.40;83.00;;;;;;5059881;28;20733;-68
2021/09/17 07:32:25;;;;;;;30.30;28.70;;;17.50;83.00;;;;;;5052105;28;20479;-69
2021/09/17 07:34:52;;;;;;;30.53;28.73;;;17.60;83.00;;;;;;5059407;28;20455;-70
2021/09/17 07:37:19;;;;;;;31.93;29.67;;;17.80;82.00;;;;;;5056312;28;20541;-69
2021/09/17 07:39:47;;;;;;;30.83;28.73;;;17.90;81.20;;;;;;5052655;28;20465;-69
2021/09/17 07:42:15;;;;;;;31.10;29.00;;;18.00;80.90;;;;;;5050185;28;20509;-69
2021/09/17 07:44:41;;;;;;;30.20;28.30;;;18.00;81.20;;;;;;5054364;28;20541;-68
2021/09/17 07:47:09;;;;;;;31.83;29.37;;;18.20;80.30;;;;;;5059690;28;20941;-68
2021/09/17 07:49:36;;;;;;;32.80;30.80;;;18.10;79.80;;;;;;5059411;28;20484;-68
2021/09/17 07:52:04;;;;;;;31.40;29.40;;;18.20;80.00;;;;;;5056419;28;20478;-68
2021/09/17 07:54:31;;;;;;;34.40;31.80;;;18.30;79.10;;;;;;5053580;28;20479;-68
2021/09/17 07:56:59;;;;;;;32.10;29.87;;;18.40;78.10;;;;;;5055697;28;20538;-67
2021/09/17 07:59:27;;;;;;;32.20;30.13;;;18.50;77.40;;;;;;5057641;28;20502;-68
2021/09/17 08:01:53;;;;;;;33.40;31.10;;;18.50;77.50;;;;;;5052200;28;20467;-68
2021/09/17 08:04:20;;;;;;;33.00;30.80;;;18.40;77.20;;;;;;5056075;28;20488;-68
2021/09/17 08:06:47;;;;;;;32.03;30.03;;;18.60;77.00;;;;;;5062269;28;20462;-68
2021/09/17 08:09:14;;;;;;;31.83;29.90;;;18.80;75.40;;;;;;5049545;28;20481;-67
2021/09/17 08:11:43;;;;;;;33.20;31.10;;;18.70;75.50;;;;;;5050833;28;20937;-68
2021/09/17 08:14:11;;;;;;;33.37;31.27;;;18.50;75.80;;;;;;5052204;28;20572;-68
2021/09/17 08:16:38;;;;;;;32.87;30.77;;;18.50;76.00;;;;;;5056244;28;20534;-68
2021/09/17 08:19:05;;;;;;;33.63;31.37;;;18.80;75.60;;;;;;5050069;28;20540;-68
2021/09/17 08:21:32;;;;;;;34.17;31.97;;;18.90;75.10;;;;;;5058267;28;20546;-69
2021/09/17 08:23:59;;;;;;;32.80;30.80;;;19.00;74.30;;;;;;5062551;28;20839;-69
2021/09/17 08:26:26;;;;;;;31.73;29.67;;;19.10;74.10;;;;;;5057717;28;20540;-69
2021/09/17 08:28:53;;;;;;;32.57;30.37;;;19.20;74.10;;;;;;5054349;28;20855;-69
2021/09/17 08:31:21;;;;;;;33.00;30.73;;;19.30;73.30;;;;;;5055246;28;20494;-69
2021/09/17 08:33:51;;;;;;;37.00;34.17;;;19.40;73.60;;;;;;5049040;28;20558;-69
2021/09/17 08:36:18;;;;;;;35.97;33.33;;;19.40;73.60;;;;;;5056563;28;20469;-69
2021/09/17 08:38:45;;;;;;;35.63;32.97;;;19.40;74.50;;;;;;5054241;28;20462;-69
2021/09/17 08:41:12;;;;;;;37.07;33.80;;;19.60;74.00;;;;;;5061521;28;20468;-69
2021/09/17 08:43:43;;;;;;;35.00;32.70;;;19.60;73.60;;;;;;5056724;28;20476;-69
2021/09/17 08:46:13;;;;;;;37.67;34.97;;;19.50;73.60;;;;;;5055837;28;20469;-69
2021/09/17 08:48:43;;;;;;;36.07;33.37;;;19.40;74.10;;;;;;5051548;28;20454;-69
2021/09/17 08:51:10;;;;;;;35.40;32.90;;;19.50;74.10;;;;;;5050873;28;21128;-69
2021/09/17 08:53:37;;;;;;;36.00;33.60;;;19.60;73.60;;;;;;5048109;28;20924;-70
2021/09/17 08:56:07;;;;;;;37.33;34.93;;;19.50;74.00;;;;;;5053327;28;20554;-70
2021/09/17 08:58:34;;;;;;;36.63;34.07;;;19.70;73.20;;;;;;5054609;28;20815;-69
2021/09/17 09:01:01;;;;;;;36.67;34.07;;;19.80;73.10;;;;;;5062007;28;20458;-69
2021/09/17 09:03:30;;;;;;;35.87;33.53;;;20.00;72.60;;;;;;5061833;28;20564;-70
2021/09/17 09:06:11;;;;;;;37.13;34.73;;;20.10;72.60;;;;;;5051667;28;20459;-70
2021/09/17 09:08:40;;;;;;;35.50;33.00;;;20.40;71.70;;;;;;5048245;28;20458;-70
2021/09/17 09:11:15;;;;;;;39.50;36.27;;;20.60;70.60;;;;;;5055476;28;21062;-70
2021/09/17 09:14:02;;;;;;;37.17;34.50;;;20.60;70.20;;;;;;5050386;28;20909;-71
2021/09/17 09:16:30;;;;;;;36.30;33.83;;;20.50;70.50;;;;;;5061014;28;20902;-70
2021/09/17 09:18:56;;;;;;;35.47;33.27;;;20.50;70.90;;;;;;5048224;28;20483;-70
2021/09/17 09:21:29;;;;;;;37.20;34.50;;;20.50;71.10;;;;;;5058706;28;20458;-70
2021/09/17 09:24:13;;;;;;;34.67;32.57;;;20.70;70.50;;;;;;5048971;28;20450;-69
2021/09/17 09:26:40;;;;;;;37.60;34.83;;;20.70;70.30;;;;;;5052734;28;20454;-70
2021/09/17 09:29:24;;;;;;;37.07;34.07;;;20.70;69.40;;;;;;5063273;28;20484;-70
2021/09/17 09:31:51;;;;;;;36.13;33.80;;;20.60;69.30;;;;;;5063902;28;20453;-73
2021/09/17 09:34:18;;;;;;;37.33;34.77;;;20.50;70.50;;;;;;5060995;28;20462;-70
2021/09/17 09:36:46;;;;;;;35.97;33.57;;;20.50;69.90;;;;;;5061128;28;20469;-69
2021/09/17 09:39:14;;;;;;;35.77;33.20;;;20.60;70.30;;;;;;5063139;28;20480;-69
2021/09/17 09:41:41;;;;;;;36.17;33.87;;;20.70;70.20;;;;;;5061636;28;20468;-71
2021/09/17 09:44:16;;;;;;;35.90;33.67;;;20.90;69.80;;;;;;5060468;28;20461;-70
2021/09/17 09:46:44;;;;;;;37.57;35.00;;;21.20;68.60;;;;;;5062919;28;20477;-70
2021/09/17 09:49:14;;;;;;;38.20;35.50;;;21.10;68.60;;;;;;5065132;28;20560;-70
2021/09/17 09:51:53;;;;;;;35.47;32.77;;;21.20;68.50;;;;;;5064709;28;20460;-71
2021/09/17 09:54:23;;;;;;;34.83;32.43;;;21.40;68.00;;;;;;5060341;28;20839;-71
2021/09/17 09:56:51;;;;;;;34.50;32.27;;;21.60;68.20;;;;;;5067641;28;20888;-72
2021/09/17 09:59:21;;;;;;;33.20;31.10;;;21.80;69.40;;;;;;5069794;28;20480;-70
2021/09/17 10:01:49;;;;;;;34.00;31.60;;;22.20;69.30;;;;;;5071076;28;20465;-72
2021/09/17 10:04:16;;;;;;;34.57;32.17;;;22.50;67.50;;;;;;5067010;28;20492;-70
2021/09/17 10:06:45;;;;;;;35.97;33.57;;;22.70;64.30;;;;;;5062899;28;20455;-71
2021/09/17 10:09:13;;;;;;;35.07;32.80;;;22.70;63.90;;;;;;5062367;28;21037;-71
2021/09/17 10:11:41;;;;;;;36.07;33.60;;;22.70;63.30;;;;;;5066492;28;20466;-72
2021/09/17 10:14:12;;;;;;;36.17;33.77;;;22.70;62.40;;;;;;5059668;28;20478;-72
2021/09/17 10:16:39;;;;;;;37.80;35.20;;;22.60;63.10;;;;;;5062181;28;20841;-72
2021/09/17 10:19:06;;;;;;;35.63;33.27;;;22.50;63.70;;;;;;5068494;28;20485;-70
2021/09/17 10:21:54;;;;;;;35.53;33.07;;;22.80;62.60;;;;;;5065702;28;20477;-70
2021/09/17 10:24:49;;;;;;;34.60;32.30;;;22.90;62.50;;;;;;5064466;28;20542;-71
2021/09/17 10:27:20;;;;;;;33.60;31.50;;;22.90;63.20;;;;;;5026142;28;20457;-71
2021/09/17 10:29:57;;;;;;;35.93;33.23;;;23.10;63.00;;;;;;5066111;28;20505;-71
2021/09/17 10:32:42;;;;;;;36.93;34.73;;;23.20;63.10;;;;;;5067570;28;20473;-72
2021/09/17 10:35:13;;;;;;;33.43;31.23;;;23.30;61.10;;;;;;5065465;28;20487;-72
2021/09/17 10:38:10;;;;;;;35.97;33.20;;;23.30;61.10;;;;;;5064812;28;20463;-71
2021/09/17 10:40:44;;;;;;;34.07;32.07;;;23.40;60.90;;;;;;5041971;28;20474;-72
2021/09/17 10:43:17;;;;;;;36.20;33.90;;;23.60;60.10;;;;;;5066966;28;20458;-72
2021/09/17 10:45:45;;;;;;;34.60;32.30;;;23.60;59.50;;;;;;5061141;28;20496;-71
2021/09/17 10:48:13;;;;;;;33.57;31.37;;;23.50;58.70;;;;;;5056506;28;20478;-72
2021/09/17 10:50:43;;;;;;;36.03;33.83;;;23.40;58.70;;;;;;5071987;28;20619;-72
2021/09/17 10:53:11;;;;;;;34.37;32.07;;;23.40;58.90;;;;;;5066786;28;21178;-70
2021/09/17 10:56:05;;;;;;;33.27;31.10;;;23.40;58.90;;;;;;5064075;28;20473;-71
2021/09/17 10:58:33;;;;;;;33.10;31.10;;;23.50;59.20;;;;;;5066610;28;20454;-70
2021/09/17 11:01:03;;;;;;;33.30;31.30;;;23.50;58.80;;;;;;5055709;28;20484;-70
2021/09/17 11:03:58;;;;;;;34.27;31.83;;;23.50;58.20;;;;;;5065716;28;20509;-70
2021/09/17 11:06:27;;;;;;;34.37;32.27;;;23.40;58.10;;;;;;5061153;28;20941;-70
2021/09/17 11:08:56;;;;;;;32.00;29.70;;;23.30;58.80;;;;;;5067323;28;20836;-70
2021/09/17 11:11:26;;;;;;;32.80;30.70;;;23.30;58.80;;;;;;5065845;28;20457;-71
2021/09/17 11:13:55;;;;;;;32.57;30.20;;;23.20;58.30;;;;;;5064074;28;20485;-70
2021/09/17 11:16:24;;;;;;;35.23;32.33;;;23.00;58.50;;;;;;5065098;28;20533;-71
2021/09/17 11:18:57;;;;;;;34.30;31.87;;;22.80;58.50;;;;;;5061399;28;20454;-70
2021/09/17 11:21:24;;;;;;;35.83;33.57;;;22.70;59.20;;;;;;5056632;28;20451;-70
2021/09/17 11:23:52;;;;;;;35.63;33.13;;;22.40;59.80;;;;;;5058587;28;20450;-70
2021/09/17 11:26:20;;;;;;;34.70;32.27;;;22.50;59.50;;;;;;5057222;28;20832;-70
2021/09/17 11:29:01;;;;;;;34.80;32.07;;;22.40;59.40;;;;;;5063619;28;20884;-70
2021/09/17 11:31:31;;;;;;;33.73;31.17;;;22.60;59.50;;;;;;5066531;28;20462;-70
2021/09/17 11:34:00;;;;;;;33.23;31.03;;;22.70;59.30;;;;;;5065257;28;20478;-71
2021/09/17 11:36:41;;;;;;;32.43;30.13;;;22.70;60.00;;;;;;5061424;28;20462;-69
2021/09/17 11:39:16;;;;;;;32.70;30.60;;;22.80;60.70;;;;;;5068022;28;20829;-69
2021/09/17 11:41:44;;;;;;;31.97;29.83;;;22.80;60.50;;;;;;5065306;28;20452;-68
2021/09/17 11:44:37;;;;;;;33.73;31.40;;;22.80;61.00;;;;;;5056310;28;20456;-68
2021/09/17 11:47:06;;;;;;;33.83;31.53;;;22.90;60.90;;;;;;5075157;28;20872;-68
2021/09/17 11:49:35;;;;;;;31.87;29.87;;;22.90;60.20;;;;;;5072152;28;20482;-68
2021/09/17 11:52:04;;;;;;;31.10;29.03;;;22.90;59.30;;;;;;5062349;28;20472;-68
2021/09/17 11:54:31;;;;;;;29.93;28.10;;;23.00;59.20;;;;;;5066264;28;20481;-68
2021/09/17 11:57:03;;;;;;;29.70;27.83;;;23.00;59.30;;;;;;5065598;28;20477;-68
2021/09/17 11:59:40;;;;;;;31.33;29.43;;;23.00;60.00;;;;;;5068989;28;20963;-68
2021/09/17 12:02:15;;;;;;;29.87;28.10;;;23.00;60.50;;;;;;5066902;28;20468;-67
2021/09/17 12:04:44;;;;;;;30.00;28.13;;;23.10;60.80;;;;;;5068589;28;20859;-68
2021/09/17 12:07:11;;;;;;;30.40;28.40;;;23.10;60.60;;;;;;5057269;28;20466;-68
2021/09/17 12:09:39;;;;;;;29.77;27.77;;;23.20;60.10;;;;;;5064436;28;20535;-71
2021/09/17 12:12:07;;;;;;;27.73;26.13;;;23.30;59.60;;;;;;5063169;28;20820;-69
2021/09/17 12:14:34;;;;;;;28.00;26.40;;;23.30;58.30;;;;;;5070035;28;20482;-69
2021/09/17 12:17:07;;;;;;;28.83;26.90;;;23.30;57.70;;;;;;5070506;28;20466;-69
2021/09/17 12:19:56;;;;;;;28.33;26.50;;;23.40;57.90;;;;;;5073291;28;20488;-69
2021/09/17 12:22:47;;;;;;;29.10;27.20;;;23.50;57.00;;;;;;5063652;28;20734;-69
2021/09/17 12:25:16;;;;;;;29.23;27.33;;;23.60;56.40;;;;;;5059488;28;20450;-70
2021/09/17 12:27:45;;;;;;;27.90;26.30;;;23.60;56.80;;;;;;5063493;28;20554;-68
2021/09/17 12:30:14;;;;;;;28.07;26.47;;;23.70;56.50;;;;;;5066414;28;20582;-68
2021/09/17 12:32:44;;;;;;;27.80;26.30;;;23.80;55.50;;;;;;5068031;28;20446;-68
2021/09/17 12:35:13;;;;;;;28.13;26.50;;;23.90;53.90;;;;;;5067750;28;20460;-67
2021/09/17 12:37:41;;;;;;;27.17;25.57;;;23.80;53.20;;;;;;5064558;28;20456;-68